createdAt,value
2022-11-24T00:01:05.537Z,99250.19
2022-11-24T00:03:33.040Z,99251.97
2022-11-24T00:06:04.159Z,99255.53
2022-11-24T00:08:31.852Z,99256.41
2022-11-24T00:11:03.987Z,99262.50
2022-11-24T00:13:31.416Z,99260.81
2022-11-24T00:16:10.026Z,99248.50
2022-11-24T00:18:37.523Z,99256.50
2022-11-24T00:21:04.963Z,99264.41
2022-11-24T00:23:32.417Z,99260.91
2022-11-24T00:26:05.006Z,99207.66
2022-11-24T00:28:33.396Z,99257.41
2022-11-24T00:31:01.016Z,99258.28
2022-11-24T00:33:29.823Z,99264.41
2022-11-24T00:35:57.497Z,99264.50
2022-11-24T00:38:24.999Z,99270.69
2022-11-24T00:43:12.488Z,99224.31
2022-11-24T00:45:40.027Z,99276.81
2022-11-24T00:48:07.847Z,99269.84
2022-11-24T00:50:36.655Z,99277.78
2022-11-24T00:53:04.100Z,99279.53
2022-11-24T00:55:31.588Z,99273.41
2022-11-24T00:57:59.077Z,99278.69
2022-11-24T01:00:27.202Z,99289.22
2022-11-24T01:02:54.716Z,99276.47
2022-11-24T01:05:22.249Z,99290.09
2022-11-24T01:07:51.069Z,99289.22
2022-11-24T01:10:18.681Z,99258.31
2022-11-24T01:12:46.139Z,99298.00
2022-11-24T01:15:13.622Z,99298.94
2022-11-24T01:17:41.074Z,99299.88
2022-11-24T01:20:10.045Z,99298.94
2022-11-24T01:22:38.252Z,99301.59
2022-11-24T01:25:07.930Z,99298.09
2022-11-24T01:27:35.489Z,99301.69
2022-11-24T01:30:03.077Z,99295.44
2022-11-24T01:32:32.227Z,99256.59
2022-11-24T01:34:59.734Z,99277.19
2022-11-24T01:37:27.178Z,99300.81
2022-11-24T01:39:54.652Z,99289.59
2022-11-24T01:42:23.403Z,99307.88
2022-11-24T01:44:52.194Z,99299.94
2022-11-24T01:47:25.914Z,99307.03
2022-11-24T01:49:54.801Z,99304.41
2022-11-24T01:52:23.638Z,99309.50
2022-11-24T01:54:52.695Z,99313.06
2022-11-24T01:57:22.021Z,99319.19
2022-11-24T01:59:51.525Z,99314.94
2022-11-24T02:02:19.017Z,99319.19
2022-11-24T02:04:46.548Z,99319.34
2022-11-24T02:07:14.068Z,99326.41
2022-11-24T02:09:44.035Z,99317.84
2022-11-24T02:12:11.496Z,99332.63
2022-11-24T02:14:39.262Z,99337.03
2022-11-24T02:17:08.397Z,99329.13
2022-11-24T02:19:44.126Z,99342.31
2022-11-24T02:22:14.565Z,99334.41
2022-11-24T02:24:43.691Z,99314.34
2022-11-24T02:27:12.467Z,99342.41
2022-11-24T02:29:39.909Z,99356.44
2022-11-24T02:32:07.672Z,99335.09
2022-11-24T02:34:35.408Z,99354.66
2022-11-24T02:37:03.019Z,99359.94
2022-11-24T02:39:30.474Z,99356.44
2022-11-24T02:41:59.236Z,99285.97
2022-11-24T02:44:29.550Z,99359.16
2022-11-24T02:47:03.373Z,99358.22
2022-11-24T02:49:30.853Z,99351.50
2022-11-24T02:51:58.326Z,99357.47
2022-11-24T02:54:25.774Z,99352.19
2022-11-24T02:56:53.341Z,99366.31
2022-11-24T02:59:20.890Z,99325.31
2022-11-24T03:01:49.792Z,99352.38
2022-11-24T03:04:17.308Z,99327.28
2022-11-24T03:06:44.751Z,99372.44
2022-11-24T03:09:12.224Z,99366.31
2022-11-24T03:11:39.825Z,99339.59
2022-11-24T03:14:07.332Z,99358.97
2022-11-24T03:16:34.840Z,99356.59
2022-11-24T03:19:03.712Z,99365.63
2022-11-24T03:21:31.187Z,99373.63
2022-11-24T03:23:58.623Z,99379.56
2022-11-24T03:26:26.329Z,99378.75
2022-11-24T03:28:54.935Z,99378.81
2022-11-24T03:31:22.670Z,99376.34
2022-11-24T03:33:50.182Z,99357.63
2022-11-24T03:36:18.981Z,99388.41
2022-11-24T03:38:46.523Z,99351.00
2022-11-24T03:41:13.999Z,99404.06
2022-11-24T03:43:44.051Z,99400.56
2022-11-24T03:46:12.030Z,99358.13
2022-11-24T03:48:39.544Z,99401.59
2022-11-24T03:51:07.335Z,99395.88
2022-11-24T03:53:36.160Z,99392.34
2022-11-24T03:56:03.880Z,99402.53
2022-11-24T03:58:31.378Z,99404.31
2022-11-24T04:00:58.880Z,99412.22
2022-11-24T04:03:26.409Z,99417.50
2022-11-24T04:05:53.876Z,99415.81
2022-11-24T04:08:21.386Z,99398.84
2022-11-24T04:10:51.703Z,99421.09
2022-11-24T04:13:20.161Z,99430.78
2022-11-24T04:15:47.687Z,99429.91
2022-11-24T04:18:15.228Z,99428.22
2022-11-24T04:20:43.136Z,99397.03
2022-11-24T04:23:10.792Z,99433.56
2022-11-24T04:25:38.401Z,99416.88
2022-11-24T04:28:07.178Z,99440.53
2022-11-24T04:30:35.999Z,99429.41
2022-11-24T04:33:03.849Z,99434.44
2022-11-24T04:35:31.329Z,99444.13
2022-11-24T04:37:58.793Z,99442.41
2022-11-24T04:40:26.261Z,99435.50
2022-11-24T04:42:54.921Z,99445.06
2022-11-24T04:45:23.775Z,99442.59
2022-11-24T04:47:51.220Z,99451.25
2022-11-24T04:50:18.836Z,99446.75
2022-11-24T04:52:46.278Z,99451.25
2022-11-24T04:55:13.821Z,99451.31
2022-11-24T04:57:41.271Z,99449.81
2022-11-24T05:00:10.146Z,99465.44
2022-11-24T05:02:39.053Z,99469.78
2022-11-24T05:05:07.522Z,99466.31
2022-11-24T05:07:35.018Z,99473.28
2022-11-24T05:10:20.266Z,99471.59
2022-11-24T05:12:54.852Z,99477.75
2022-11-24T05:15:22.324Z,99483.97
2022-11-24T05:17:51.241Z,99483.97
2022-11-24T05:20:19.159Z,99458.75
2022-11-24T05:22:46.663Z,99496.22
2022-11-24T05:25:14.256Z,99498.84
2022-11-24T05:27:41.735Z,99498.03
2022-11-24T05:30:10.047Z,99503.22
2022-11-24T05:32:37.526Z,99498.84
2022-11-24T05:35:09.583Z,99504.91
2022-11-24T05:37:37.372Z,99499.63
2022-11-24T05:40:06.793Z,99501.34
2022-11-24T05:42:47.678Z,99493.75
2022-11-24T05:45:16.771Z,99477.50
2022-11-24T05:47:44.232Z,99500.34
2022-11-24T05:50:13.834Z,99500.50
2022-11-24T05:52:41.368Z,99506.44
2022-11-24T05:55:09.895Z,99497.63
2022-11-24T05:57:37.324Z,99508.00
2022-11-24T06:00:05.027Z,99511.47
2022-11-24T06:02:32.680Z,99513.19
2022-11-24T06:05:00.333Z,99512.25
2022-11-24T06:07:29.144Z,99512.41
2022-11-24T06:09:56.687Z,99528.84
2022-11-24T06:12:24.148Z,99529.59
2022-11-24T06:14:51.614Z,99514.28
2022-11-24T06:17:19.076Z,99522.78
2022-11-24T06:19:49.967Z,99530.38
2022-11-24T06:22:18.811Z,99536.53
2022-11-24T06:24:47.622Z,99523.03
2022-11-24T06:27:15.177Z,99542.53
2022-11-24T06:29:42.674Z,99541.72
2022-11-24T06:32:10.161Z,99549.53
2022-11-24T06:34:37.639Z,99556.50
2022-11-24T06:37:05.086Z,99555.56
2022-11-24T06:39:32.539Z,99558.13
2022-11-24T06:42:01.895Z,99565.13
2022-11-24T06:44:29.365Z,99556.34
2022-11-24T06:46:56.866Z,99562.50
2022-11-24T06:49:24.343Z,99562.41
2022-11-24T06:51:51.781Z,99565.78
2022-11-24T06:54:20.932Z,99522.25
2022-11-24T06:56:48.439Z,99577.97
2022-11-24T06:59:19.113Z,99572.81
2022-11-24T07:01:46.803Z,99576.22
2022-11-24T07:04:14.707Z,99521.16
2022-11-24T07:06:42.195Z,99585.97
2022-11-24T07:09:10.078Z,99585.13
2022-11-24T07:11:37.563Z,99592.31
2022-11-24T07:14:05.104Z,99598.38
2022-11-24T07:16:34.019Z,99540.53
2022-11-24T07:19:01.604Z,99603.66
2022-11-24T07:21:29.125Z,99604.03
2022-11-24T07:23:57.224Z,99548.88
2022-11-24T07:26:24.767Z,99617.91
2022-11-24T07:28:52.281Z,99614.06
2022-11-24T07:31:20.531Z,99549.31
2022-11-24T07:33:50.379Z,99623.84
2022-11-24T07:36:17.883Z,99590.19
2022-11-24T07:38:45.304Z,99581.19
2022-11-24T07:41:13.809Z,99629.03
2022-11-24T07:43:41.479Z,99631.94
2022-11-24T07:46:10.843Z,99627.69
2022-11-24T07:48:38.315Z,99631.94
2022-11-24T07:51:07.552Z,99632.72
2022-11-24T07:53:35.226Z,99632.63
2022-11-24T07:56:06.060Z,99619.69
2022-11-24T07:58:34.567Z,99646.34
2022-11-24T08:01:09.596Z,99651.44
2022-11-24T08:03:37.118Z,99654.88
2022-11-24T08:08:53.542Z,99665.69
2022-11-24T08:11:21.015Z,99662.75
2022-11-24T08:13:48.455Z,99660.88
2022-11-24T08:16:17.221Z,99668.63
2022-11-24T08:18:44.912Z,99671.28
2022-11-24T08:21:13.265Z,99675.63
2022-11-24T08:23:40.752Z,99677.44
2022-11-24T08:26:10.820Z,99595.47
2022-11-24T08:28:38.273Z,99676.13
2022-11-24T08:31:06.312Z,99651.78
2022-11-24T08:33:33.793Z,99681.38
2022-11-24T08:36:05.578Z,99687.53
2022-11-24T08:38:32.995Z,99691.94
2022-11-24T08:41:02.199Z,99695.44
2022-11-24T08:43:30.974Z,99695.53
2022-11-24T08:46:00.645Z,99699.94
2022-11-24T08:48:28.477Z,99703.53
2022-11-24T08:50:56.013Z,99704.22
2022-11-24T08:53:23.503Z,99706.84
2022-11-24T08:55:50.928Z,99713.22
2022-11-24T08:58:18.420Z,99713.41
2022-11-24T09:00:47.183Z,99662.69
2022-11-24T09:03:14.636Z,99726.09
2022-11-24T09:05:57.508Z,99727.56
2022-11-24T09:08:24.964Z,99727.41
2022-11-24T09:10:52.418Z,99729.28
2022-11-24T09:13:19.874Z,99727.75
2022-11-24T09:15:48.635Z,99734.91
2022-11-24T09:18:16.075Z,99740.34
2022-11-24T09:20:43.533Z,99742.25
2022-11-24T09:23:11.281Z,99746.94
2022-11-24T09:25:38.701Z,99747.88
2022-11-24T09:28:06.290Z,99754.94
2022-11-24T09:30:33.788Z,99750.63
2022-11-24T09:33:02.627Z,99752.47
2022-11-24T09:35:30.120Z,99742.94
2022-11-24T09:37:57.574Z,99755.28
2022-11-24T09:40:25.010Z,99750.78
2022-11-24T09:42:56.357Z,99700.28
2022-11-24T09:45:49.379Z,99746.00
2022-11-24T09:48:22.545Z,99702.50
2022-11-24T09:50:50.127Z,99749.25
2022-11-24T09:53:19.755Z,99734.84
2022-11-24T09:55:47.621Z,99757.16
2022-11-24T09:58:36.228Z,99750.94
2022-11-24T10:01:06.022Z,99747.53
2022-11-24T10:03:37.023Z,99708.41
2022-11-24T10:06:06.356Z,99757.75
2022-11-24T10:09:03.898Z,99750.75
2022-11-24T10:11:37.912Z,99756.91
2022-11-24T10:14:14.445Z,99754.94
2022-11-24T10:16:46.365Z,99755.41
2022-11-24T10:19:22.435Z,99766.66
2022-11-24T10:21:57.306Z,99768.97
2022-11-24T10:24:34.611Z,99714.19
2022-11-24T10:27:02.953Z,99772.00
2022-11-24T10:29:33.424Z,99761.94
2022-11-24T10:32:01.075Z,99743.63
2022-11-24T10:34:33.514Z,99777.13
2022-11-24T10:37:02.951Z,99773.00
2022-11-24T10:39:32.948Z,99768.66
2022-11-24T10:42:02.511Z,99779.03
2022-11-24T10:44:29.945Z,99777.22
2022-11-24T10:46:57.421Z,99783.97
2022-11-24T10:49:26.010Z,99779.41
2022-11-24T10:52:06.956Z,99789.19
2022-11-24T10:54:35.792Z,99737.75
2022-11-24T10:57:03.318Z,99789.75
2022-11-24T10:59:33.249Z,99785.31
2022-11-24T11:02:01.178Z,99785.22
2022-11-24T11:04:29.820Z,99748.09
2022-11-24T11:07:25.904Z,99785.22
2022-11-24T11:10:13.581Z,99790.59
2022-11-24T11:12:45.132Z,99781.88
2022-11-24T11:15:26.231Z,99792.28
2022-11-24T11:17:57.399Z,99789.75
2022-11-24T11:20:28.676Z,99797.59
2022-11-24T11:22:57.567Z,99789.19
2022-11-24T11:25:26.951Z,99721.53
2022-11-24T11:28:07.170Z,99797.69
2022-11-24T11:36:12.597Z,99809.75
2022-11-24T11:38:41.400Z,99807.59
2022-11-24T11:41:10.853Z,99815.28
2022-11-24T11:43:40.722Z,99819.72
2022-11-24T11:46:12.487Z,99816.59
2022-11-24T11:48:44.045Z,99823.63
2022-11-24T11:51:26.077Z,99824.94
2022-11-24T11:53:56.929Z,99774.38
2022-11-24T11:56:25.788Z,99773.94
2022-11-24T11:59:37.975Z,99837.72
2022-11-24T12:02:26.061Z,99782.25
2022-11-24T12:04:53.984Z,99795.75
2022-11-24T12:07:47.913Z,99851.63
2022-11-24T12:10:22.061Z,99852.84
2022-11-24T12:13:01.651Z,99864.56
2022-11-24T12:15:32.373Z,99846.38
2022-11-24T12:18:06.582Z,99858.97
2022-11-24T12:20:41.513Z,99861.78
2022-11-24T12:23:15.518Z,99849.44
2022-11-24T12:25:46.534Z,99788.31
2022-11-24T12:28:20.145Z,99869.03
2022-11-24T12:30:50.726Z,99875.22
2022-11-24T12:33:25.426Z,99875.28
2022-11-24T12:35:54.292Z,99826.69
2022-11-24T12:38:28.705Z,99876.31
2022-11-24T12:41:41.699Z,99881.78
2022-11-24T12:44:16.346Z,99877.69
2022-11-24T12:46:46.535Z,99881.31
2022-11-24T12:49:15.984Z,99883.25
2022-11-24T12:51:43.967Z,99840.69
2022-11-24T12:54:13.333Z,99887.13
2022-11-24T12:56:43.399Z,99888.03
2022-11-24T12:59:18.540Z,99888.13
2022-11-24T13:01:48.370Z,99894.38
2022-11-24T13:04:19.249Z,99897.88
2022-11-24T13:06:49.831Z,99896.25
2022-11-24T13:09:17.673Z,99897.09
2022-11-24T13:11:45.369Z,99858.97
2022-11-24T13:14:17.399Z,99906.91
2022-11-24T13:19:40.333Z,99910.69
2022-11-24T13:22:18.267Z,99915.81
2022-11-24T13:24:45.847Z,99914.09
2022-11-24T13:27:30.666Z,99921.97
2022-11-24T13:29:59.456Z,99922.13
2022-11-24T13:32:47.703Z,99923.91
2022-11-24T13:35:16.405Z,99884.06
2022-11-24T13:37:51.265Z,99889.34
2022-11-24T13:40:54.210Z,99939.88
2022-11-24T13:43:27.614Z,99930.34
2022-11-24T13:45:56.397Z,99928.50
2022-11-24T13:49:03.720Z,99932.88
2022-11-24T13:51:31.210Z,99929.47
2022-11-24T13:54:00.651Z,99929.47
2022-11-24T13:56:29.801Z,99931.16
2022-11-24T13:58:58.431Z,99940.91
2022-11-24T14:01:28.223Z,99947.91
2022-11-24T14:04:30.585Z,99952.34
2022-11-24T14:07:05.560Z,99959.44
2022-11-24T14:09:36.386Z,99925.69
2022-11-24T14:12:09.118Z,99930.63
2022-11-24T14:14:36.814Z,99956.00
2022-11-24T14:17:23.911Z,99955.75
2022-11-24T14:19:52.217Z,99960.13
2022-11-24T14:22:21.514Z,99926.28
2022-11-24T14:24:56.279Z,99918.66
2022-11-24T14:27:27.965Z,99962.59
2022-11-24T14:29:56.635Z,99923.63
2022-11-24T14:32:25.462Z,99891.78
2022-11-24T14:34:54.078Z,99963.34
2022-11-24T14:37:21.686Z,99944.31
2022-11-24T14:39:49.224Z,99966.69
2022-11-24T14:42:21.480Z,99919.69
2022-11-24T14:44:54.099Z,99932.75
2022-11-24T14:47:31.439Z,99974.63
2022-11-24T14:50:07.843Z,99984.34
2022-11-24T14:52:35.409Z,99980.88
2022-11-24T14:55:21.507Z,99980.94
2022-11-24T14:57:49.676Z,99976.56
2022-11-24T15:00:19.236Z,99982.72
2022-11-24T15:02:49.988Z,99924.81
2022-11-24T15:05:17.595Z,99990.66
2022-11-24T15:07:45.331Z,99995.97
2022-11-24T15:10:27.758Z,99993.31
2022-11-24T15:12:58.750Z,99990.75
2022-11-24T15:15:29.970Z,99938.13
2022-11-24T15:17:59.536Z,100006.63
2022-11-24T15:20:28.239Z,100002.28
2022-11-24T15:23:19.297Z,100017.28
2022-11-24T15:25:46.786Z,100015.69
2022-11-24T15:28:14.262Z,99951.59
2022-11-24T15:30:41.692Z,100018.25
2022-11-24T15:33:17.494Z,100020.03
2022-11-24T15:35:45.009Z,99965.56
2022-11-24T15:38:12.726Z,100019.31
2022-11-24T15:40:40.668Z,100016.75
2022-11-24T15:43:18.456Z,100007.13
2022-11-24T15:45:46.153Z,100024.78
2022-11-24T15:48:17.875Z,100017.88
2022-11-24T15:50:47.097Z,100026.75
2022-11-24T15:53:17.005Z,99979.75
2022-11-24T15:55:44.496Z,100030.41
2022-11-24T15:58:12.353Z,100028.78
2022-11-24T16:00:39.883Z,100033.28
2022-11-24T16:03:38.287Z,100033.38
2022-11-24T16:05:56.384Z,100035.25
2022-11-24T16:08:23.942Z,100045.94
2022-11-24T16:10:51.381Z,100044.19
2022-11-24T16:13:19.021Z,100045.13
2022-11-24T16:15:46.480Z,100000.97
2022-11-24T16:18:14.569Z,100054.03
2022-11-24T16:20:42.003Z,100056.75
2022-11-24T16:23:10.770Z,100064.75
2022-11-24T16:25:38.209Z,100059.53
2022-11-24T16:28:06.085Z,100054.25
2022-11-24T16:30:33.565Z,99989.47
2022-11-24T16:33:03.907Z,100071.13
2022-11-24T16:35:31.337Z,100065.91
2022-11-24T16:37:58.768Z,100063.25
2022-11-24T16:40:28.505Z,100060.69
2022-11-24T16:42:57.880Z,100067.00
2022-11-24T16:45:25.359Z,100064.38
2022-11-24T16:47:52.828Z,100071.44
2022-11-24T16:50:20.284Z,100075.97
2022-11-24T16:52:47.735Z,100079.53
2022-11-24T16:55:15.269Z,100076.97
2022-11-24T16:57:44.058Z,100073.47
2022-11-24T17:00:12.913Z,100073.47
2022-11-24T17:02:40.421Z,100079.69
2022-11-24T17:05:08.868Z,100081.56
2022-11-24T17:07:36.405Z,100081.56
2022-11-24T17:10:04.172Z,100080.66
2022-11-24T17:12:31.609Z,100078.97
2022-11-24T17:15:30.522Z,100080.81
2022-11-24T17:18:16.191Z,100083.56
2022-11-24T17:20:35.967Z,100080.97
2022-11-24T17:23:03.419Z,100085.41
2022-11-24T17:25:30.871Z,100087.28
2022-11-24T17:27:58.378Z,100087.28
2022-11-24T17:30:27.153Z,100089.06
2022-11-24T17:32:56.973Z,100090.91
2022-11-24T17:35:24.636Z,100031.13
2022-11-24T17:37:52.071Z,100093.66
2022-11-24T17:40:28.748Z,100098.09
2022-11-24T17:42:58.644Z,100099.00
2022-11-24T17:45:27.652Z,100104.47
2022-11-24T17:47:55.167Z,100094.75
2022-11-24T17:50:26.131Z,100100.09
2022-11-24T17:52:54.014Z,100096.63
2022-11-24T17:55:21.616Z,100095.75
2022-11-24T17:57:49.406Z,100096.78
2022-11-24T18:00:17.581Z,100095.03
2022-11-24T18:02:46.410Z,100101.28
2022-11-24T18:05:13.952Z,100097.75
2022-11-24T18:07:41.432Z,100108.34
2022-11-24T18:10:09.600Z,100100.47
2022-11-24T18:12:37.023Z,100101.44
2022-11-24T18:15:04.940Z,100107.66
2022-11-24T18:17:32.388Z,100105.09
2022-11-24T18:20:01.169Z,100105.94
2022-11-24T18:22:57.755Z,100118.38
2022-11-24T18:25:16.147Z,100117.50
2022-11-24T18:27:43.683Z,100101.38
2022-11-24T18:30:11.281Z,100124.72
2022-11-24T18:32:38.717Z,100114.22
2022-11-24T18:35:08.236Z,100112.44
2022-11-24T18:37:38.846Z,100118.75
2022-11-24T18:40:07.892Z,100122.22
2022-11-24T18:42:35.328Z,100117.09
2022-11-24T18:45:04.186Z,100120.69
2022-11-24T18:47:31.615Z,100116.34
2022-11-24T18:50:00.128Z,100118.19
2022-11-24T18:52:28.904Z,100118.19
2022-11-24T18:54:57.432Z,100116.47
2022-11-24T18:57:24.882Z,100112.97
2022-11-24T18:59:52.428Z,100114.00
2022-11-24T19:02:19.862Z,100118.41
2022-11-24T19:04:47.333Z,100118.47
2022-11-24T19:07:16.915Z,100122.06
2022-11-24T19:09:46.272Z,100125.63
2022-11-24T19:12:13.700Z,100121.34
2022-11-24T19:14:41.169Z,100138.13
2022-11-24T19:17:08.611Z,100127.56
2022-11-24T19:19:36.051Z,100123.19
2022-11-24T19:22:03.480Z,100127.72
2022-11-24T19:24:30.916Z,100125.97
2022-11-24T19:26:59.688Z,100124.28
2022-11-24T19:29:27.155Z,100124.28
2022-11-24T19:31:54.991Z,100120.91
2022-11-24T19:34:22.465Z,100120.09
2022-11-24T19:36:49.901Z,100121.84
2022-11-24T19:39:17.484Z,100083.56
2022-11-24T19:41:45.039Z,100125.59
2022-11-24T19:44:14.056Z,100126.50
2022-11-24T19:46:41.508Z,100129.22
2022-11-24T19:49:09.412Z,100129.22
2022-11-24T19:51:38.252Z,100134.56
2022-11-24T19:54:06.074Z,100143.41
2022-11-24T19:56:35.033Z,100137.28
2022-11-24T19:59:02.791Z,100134.69
2022-11-24T20:01:32.134Z,100142.69
2022-11-24T20:04:00.513Z,100137.63
2022-11-24T20:06:28.215Z,100145.41
2022-11-24T20:08:55.708Z,100150.69
2022-11-24T20:11:23.235Z,100149.94
2022-11-24T20:13:51.583Z,100156.97
2022-11-24T20:16:19.835Z,100091.41
2022-11-24T20:18:48.709Z,100164.09
2022-11-24T20:21:17.783Z,100145.28
2022-11-24T20:23:45.724Z,100165.13
2022-11-24T20:26:14.547Z,100166.97
2022-11-24T20:28:42.024Z,100118.13
2022-11-24T20:31:10.330Z,100164.38
2022-11-24T20:33:37.915Z,100169.66
2022-11-24T20:36:07.965Z,100086.47
2022-11-24T20:38:35.536Z,100170.69
2022-11-24T20:41:08.834Z,100155.41
2022-11-24T20:43:36.858Z,100169.88
2022-11-24T20:46:04.550Z,100168.19
2022-11-24T20:48:32.037Z,100174.41
2022-11-24T20:51:03.558Z,100169.13
2022-11-24T20:53:32.305Z,100170.97
2022-11-24T20:56:06.181Z,100171.91
2022-11-24T20:58:34.224Z,100162.25
2022-11-24T21:01:04.784Z,100171.97
2022-11-24T21:03:32.243Z,100169.31
2022-11-24T21:05:59.704Z,100182.53
2022-11-24T21:08:27.260Z,100180.03
2022-11-24T21:10:56.797Z,100182.59
2022-11-24T21:13:24.303Z,100185.31
2022-11-24T21:15:51.955Z,100181.78
2022-11-24T21:18:19.439Z,100176.59
2022-11-24T21:20:47.196Z,100122.72
2022-11-24T21:23:15.069Z,100099.66
2022-11-24T21:25:42.613Z,100124.63
2022-11-24T21:28:12.811Z,100185.50
2022-11-24T21:30:40.223Z,100186.47
2022-11-24T21:33:07.906Z,100191.75
2022-11-24T21:35:35.551Z,100143.16
2022-11-24T21:38:03.060Z,100192.75
2022-11-24T21:40:30.513Z,100177.75
2022-11-24T21:42:58.859Z,100193.03
2022-11-24T21:45:29.028Z,100188.03
2022-11-24T21:47:56.785Z,100193.56
2022-11-24T21:50:24.240Z,100195.06
2022-11-24T21:52:51.672Z,100196.94
2022-11-24T21:55:19.172Z,100201.22
2022-11-24T21:57:46.607Z,100193.31
2022-11-24T22:00:15.606Z,100191.75
2022-11-24T22:02:44.443Z,100184.59
2022-11-24T22:05:11.974Z,100187.16
2022-11-24T22:07:39.491Z,100181.06
2022-11-24T22:10:08.450Z,100188.03
2022-11-24T22:12:35.891Z,100186.59
2022-11-24T22:15:03.350Z,100179.59
2022-11-24T22:17:31.179Z,100148.41
2022-11-24T22:19:59.987Z,100191.44
2022-11-24T22:22:27.534Z,100188.13
2022-11-24T22:24:55.018Z,100192.31
2022-11-24T22:27:22.477Z,100195.06
2022-11-24T22:29:54.019Z,100188.00
2022-11-24T22:32:21.727Z,100194.06
2022-11-24T22:34:49.182Z,100187.09
2022-11-24T22:37:17.941Z,100187.09
2022-11-24T22:39:45.355Z,100188.81
2022-11-24T22:42:12.799Z,100191.31
2022-11-24T22:44:40.257Z,100188.13
2022-11-24T22:47:07.696Z,100191.03
2022-11-24T22:49:35.115Z,100193.16
2022-11-24T22:52:02.550Z,100188.66
2022-11-24T22:54:31.323Z,100189.59
2022-11-24T22:56:58.797Z,100191.56
2022-11-24T22:59:26.223Z,100193.41
2022-11-24T23:01:53.661Z,100188.97
2022-11-24T23:04:21.153Z,100188.66
2022-11-24T23:06:48.650Z,100186.69
2022-11-24T23:09:16.256Z,100193.09
2022-11-24T23:11:45.019Z,100195.75
2022-11-24T23:14:13.881Z,100141.59
2022-11-24T23:16:41.357Z,100190.59
2022-11-24T23:19:08.984Z,100189.72
2022-11-24T23:21:38.125Z,100136.78
2022-11-24T23:24:06.411Z,100196.06
2022-11-24T23:26:34.707Z,100190.78
2022-11-24T23:29:03.663Z,100188.28
2022-11-24T23:31:31.221Z,100168.34
2022-11-24T23:33:59.193Z,100188.41
2022-11-24T23:36:26.661Z,100180.50
2022-11-24T23:38:54.309Z,100178.00
2022-11-24T23:41:22.664Z,100147.44
2022-11-24T23:43:50.167Z,100144.25
2022-11-24T23:46:20.274Z,100125.31
2022-11-24T23:48:47.696Z,100183.84
2022-11-24T23:51:15.865Z,100179.47
2022-11-24T23:53:43.480Z,100175.13
2022-11-24T23:56:12.091Z,100177.75
2022-11-24T23:58:39.524Z,100176.78
